createdAt,value
2022-09-24T00:01:27.274Z,17.01
2022-09-24T00:04:00.529Z,17.02
2022-09-24T00:06:29.640Z,17.01
2022-09-24T00:08:57.545Z,17.01
2022-09-24T00:11:27.667Z,17.01
2022-09-24T00:13:56.374Z,16.99
2022-09-24T00:16:26.024Z,17.01
2022-09-24T00:18:53.654Z,17.00
2022-09-24T00:21:24.110Z,17.01
2022-09-24T00:23:54.188Z,17.00
2022-09-24T00:26:40.395Z,16.99
2022-09-24T00:29:08.456Z,16.99
2022-09-24T00:31:35.604Z,16.98
2022-09-24T00:34:03.692Z,16.97
2022-09-24T00:36:30.512Z,16.96
2022-09-24T00:38:59.052Z,16.97
2022-09-24T00:41:29.318Z,16.96
2022-09-24T00:43:56.482Z,16.97
2022-09-24T00:46:55.186Z,16.97
2022-09-24T00:49:21.982Z,16.98
2022-09-24T00:51:51.312Z,16.95
2022-09-24T00:54:23.132Z,16.97
2022-09-24T00:56:52.545Z,16.97
2022-09-24T00:59:23.146Z,16.97
2022-09-24T01:01:51.615Z,17.00
2022-09-24T01:04:23.078Z,16.95
2022-09-24T01:06:50.568Z,16.96
2022-09-24T01:09:20.251Z,16.96
2022-09-24T01:11:49.489Z,16.94
2022-09-24T01:14:55.273Z,16.94
2022-09-24T01:17:44.280Z,16.95
2022-09-24T01:20:29.815Z,16.95
2022-09-24T01:23:15.434Z,16.93
2022-09-24T01:25:58.447Z,16.93
2022-09-24T01:28:27.682Z,16.91
2022-09-24T01:31:01.103Z,16.93
2022-09-24T01:33:34.104Z,16.93
2022-09-24T01:36:08.205Z,16.94
2022-09-24T01:38:44.420Z,16.93
2022-09-24T01:41:16.037Z,16.93
2022-09-24T01:43:43.941Z,16.93
2022-09-24T01:46:13.050Z,16.93
2022-09-24T01:48:41.135Z,16.92
2022-09-24T01:51:13.329Z,16.94
2022-09-24T01:53:45.679Z,16.93
2022-09-24T01:56:32.468Z,16.92
2022-09-24T01:59:04.708Z,16.92
2022-09-24T02:01:44.069Z,16.91
2022-09-24T02:04:16.739Z,16.91
2022-09-24T02:06:51.419Z,16.91
2022-09-24T02:09:40.062Z,16.90
2022-09-24T02:12:15.242Z,16.91
2022-09-24T02:14:48.796Z,16.91
2022-09-24T02:17:15.957Z,16.92
2022-09-24T02:19:44.160Z,16.92
2022-09-24T02:22:14.282Z,16.89
2022-09-24T02:24:57.565Z,16.88
2022-09-24T02:27:28.842Z,16.92
2022-09-24T02:29:57.176Z,16.90
2022-09-24T02:32:27.957Z,16.89
2022-09-24T02:35:00.192Z,16.90
2022-09-24T02:38:04.107Z,16.91
2022-09-24T02:40:34.418Z,17.00
2022-09-24T02:43:01.263Z,17.01
2022-09-24T02:45:27.996Z,16.95
2022-09-24T02:47:54.771Z,16.93
2022-09-24T02:50:21.941Z,16.90
2022-09-24T02:52:48.635Z,16.88
2022-09-24T02:55:30.682Z,16.85
2022-09-24T02:57:57.572Z,16.86
2022-09-24T03:00:24.203Z,16.81
2022-09-24T03:02:50.889Z,16.82
2022-09-24T03:05:18.259Z,16.81
2022-09-24T03:07:45.476Z,16.80
2022-09-24T03:10:13.069Z,16.79
2022-09-24T03:12:40.792Z,16.79
2022-09-24T03:15:07.640Z,16.79
2022-09-24T03:17:34.195Z,16.80
2022-09-24T03:20:01.010Z,16.81
2022-09-24T03:22:27.592Z,16.80
2022-09-24T03:24:54.138Z,16.79
2022-09-24T03:27:21.392Z,16.77
2022-09-24T03:30:06.297Z,16.77
2022-09-24T03:32:33.863Z,16.79
2022-09-24T03:35:01.366Z,16.77
2022-09-24T03:37:49.210Z,16.75
2022-09-24T03:40:16.295Z,16.77
2022-09-24T03:42:43.291Z,16.77
2022-09-24T03:45:10.296Z,16.76
2022-09-24T03:47:37.321Z,16.74
2022-09-24T03:50:04.839Z,16.74
2022-09-24T03:52:31.544Z,16.73
2022-09-24T03:54:58.046Z,16.75
2022-09-24T03:57:24.681Z,16.73
2022-09-24T03:59:53.383Z,16.73
2022-09-24T04:02:20.176Z,16.70
2022-09-24T04:04:47.039Z,16.70
2022-09-24T04:07:13.813Z,16.72
2022-09-24T04:09:41.528Z,16.73
2022-09-24T04:12:08.203Z,16.70
2022-09-24T04:14:34.898Z,16.71
2022-09-24T04:17:01.542Z,16.71
2022-09-24T04:19:29.358Z,16.72
2022-09-24T04:21:56.148Z,16.71
2022-09-24T04:24:22.941Z,16.69
2022-09-24T04:26:50.645Z,16.67
2022-09-24T04:29:17.597Z,16.68
2022-09-24T04:31:44.398Z,16.67
2022-09-24T04:34:11.526Z,16.67
2022-09-24T04:36:38.183Z,16.66
2022-09-24T04:39:04.894Z,16.67
2022-09-24T04:41:31.495Z,16.67
2022-09-24T04:43:58.333Z,16.66
2022-09-24T04:46:25.114Z,16.66
2022-09-24T04:48:53.257Z,16.66
2022-09-24T04:51:21.331Z,16.65
2022-09-24T04:53:50.567Z,16.65
2022-09-24T04:56:17.127Z,16.64
2022-09-24T04:58:56.235Z,16.64
2022-09-24T05:01:23.820Z,16.64
2022-09-24T05:03:50.611Z,16.64
2022-09-24T05:06:17.359Z,16.66
2022-09-24T05:08:43.840Z,16.64
2022-09-24T05:11:10.398Z,16.65
2022-09-24T05:13:36.983Z,16.63
2022-09-24T05:16:03.777Z,16.63
2022-09-24T05:18:30.592Z,16.61
2022-09-24T05:20:57.396Z,16.62
2022-09-24T05:23:23.966Z,16.62
2022-09-24T05:26:08.992Z,16.66
2022-09-24T05:28:37.585Z,16.61
2022-09-24T05:31:04.236Z,16.59
2022-09-24T05:33:30.851Z,16.58
2022-09-24T05:36:00.998Z,16.58
2022-09-24T05:38:27.690Z,16.59
2022-09-24T05:40:54.851Z,16.60
2022-09-24T05:43:21.922Z,16.57
2022-09-24T05:45:50.100Z,16.57
2022-09-24T05:48:17.203Z,16.57
2022-09-24T05:50:43.792Z,16.58
2022-09-24T05:53:10.592Z,16.59
2022-09-24T05:55:37.321Z,16.57
2022-09-24T05:58:09.465Z,16.57
2022-09-24T06:00:36.570Z,16.56
2022-09-24T06:03:10.448Z,16.53
2022-09-24T06:05:37.121Z,16.52
2022-09-24T06:08:04.990Z,16.54
2022-09-24T06:10:32.629Z,16.53
2022-09-24T06:12:59.178Z,16.53
2022-09-24T06:15:27.292Z,16.53
2022-09-24T06:17:55.156Z,16.53
2022-09-24T06:20:23.120Z,16.53
2022-09-24T06:22:50.588Z,16.53
2022-09-24T06:25:17.399Z,16.52
2022-09-24T06:27:44.244Z,16.55
2022-09-24T06:30:11.887Z,16.55
2022-09-24T06:32:38.679Z,16.52
2022-09-24T06:35:06.164Z,16.51
2022-09-24T06:37:33.999Z,16.52
2022-09-24T06:40:00.947Z,16.51
2022-09-24T06:42:27.857Z,16.52
2022-09-24T06:44:55.783Z,16.51
2022-09-24T06:47:24.099Z,16.51
2022-09-24T06:49:50.638Z,16.51
2022-09-24T06:52:17.311Z,16.51
2022-09-24T06:54:43.862Z,16.54
2022-09-24T06:57:11.208Z,16.51
2022-09-24T06:59:37.906Z,16.50
2022-09-24T07:02:04.643Z,16.50
2022-09-24T07:04:31.247Z,16.49
2022-09-24T07:07:16.329Z,16.49
2022-09-24T07:09:42.900Z,16.48
2022-09-24T07:12:09.422Z,16.57
2022-09-24T07:14:36.290Z,16.51
2022-09-24T07:17:03.001Z,16.50
2022-09-24T07:19:29.604Z,16.50
2022-09-24T07:21:56.790Z,16.50
2022-09-24T07:24:23.453Z,16.50
2022-09-24T07:26:50.066Z,16.49
2022-09-24T07:29:16.899Z,16.51
2022-09-24T07:31:43.710Z,16.49
2022-09-24T07:34:10.500Z,16.50
2022-09-24T07:36:37.279Z,16.49
2022-09-24T07:39:04.487Z,16.49
2022-09-24T07:41:31.265Z,16.48
2022-09-24T07:43:58.105Z,16.48
2022-09-24T07:46:24.925Z,16.49
2022-09-24T07:48:57.785Z,16.51
2022-09-24T07:51:27.224Z,16.51
2022-09-24T07:53:54.956Z,16.50
2022-09-24T07:56:23.035Z,16.50
2022-09-24T07:58:51.279Z,16.51
2022-09-24T08:01:18.949Z,16.50
2022-09-24T08:03:46.503Z,16.49
2022-09-24T08:06:13.509Z,16.50
2022-09-24T08:08:40.326Z,16.49
2022-09-24T08:11:10.040Z,16.50
2022-09-24T08:13:37.268Z,16.49
2022-09-24T08:16:04.978Z,16.50
2022-09-24T08:18:32.968Z,16.49
2022-09-24T08:21:07.644Z,16.49
2022-09-24T08:23:34.534Z,16.49
2022-09-24T08:26:01.077Z,16.50
2022-09-24T08:28:28.520Z,16.50
2022-09-24T08:31:02.972Z,16.52
2022-09-24T08:33:32.146Z,16.51
2022-09-24T08:36:03.340Z,16.50
2022-09-24T08:38:29.866Z,16.49
2022-09-24T08:41:00.217Z,16.52
2022-09-24T08:44:08.213Z,16.52
2022-09-24T08:47:03.404Z,16.56
2022-09-24T08:49:45.504Z,16.55
2022-09-24T08:52:30.862Z,16.54
2022-09-24T08:55:04.513Z,16.56
2022-09-24T08:57:38.359Z,16.57
2022-09-24T09:00:07.661Z,16.56
2022-09-24T09:02:41.331Z,16.57
2022-09-24T09:05:13.628Z,16.56
2022-09-24T09:07:58.960Z,16.56
2022-09-24T09:10:37.739Z,16.55
2022-09-24T09:13:21.750Z,16.58
2022-09-24T09:16:17.314Z,16.56
2022-09-24T09:18:47.518Z,16.57
2022-09-24T09:21:41.809Z,16.58
2022-09-24T09:24:20.685Z,16.58
2022-09-24T09:26:51.240Z,16.61
2022-09-24T09:29:17.986Z,16.58
2022-09-24T09:32:03.383Z,16.61
2022-09-24T09:34:56.083Z,16.61
2022-09-24T09:37:27.041Z,16.61
2022-09-24T09:39:59.371Z,16.61
2022-09-24T09:42:26.176Z,16.62
2022-09-24T09:44:53.488Z,16.63
2022-09-24T09:47:26.734Z,16.60
2022-09-24T09:49:57.881Z,16.60
2022-09-24T09:52:29.171Z,16.63
2022-09-24T09:54:56.053Z,16.63
2022-09-24T09:57:25.129Z,16.63
2022-09-24T09:59:54.892Z,16.61
2022-09-24T10:02:28.507Z,16.66
2022-09-24T10:04:58.170Z,16.63
2022-09-24T10:07:24.947Z,16.64
2022-09-24T10:10:26.010Z,16.65
2022-09-24T10:13:09.780Z,16.63
2022-09-24T10:15:57.414Z,16.67
2022-09-24T10:18:32.705Z,16.67
2022-09-24T10:21:03.199Z,16.64
2022-09-24T10:23:37.653Z,16.63
2022-09-24T10:26:05.392Z,16.63
2022-09-24T10:28:53.390Z,16.67
2022-09-24T10:31:25.366Z,16.67
2022-09-24T10:33:55.787Z,16.71
2022-09-24T10:36:23.854Z,16.69
2022-09-24T10:39:04.380Z,16.67
2022-09-24T10:41:31.757Z,16.68
2022-09-24T10:44:04.352Z,16.66
2022-09-24T10:46:50.757Z,16.70
2022-09-24T10:49:23.263Z,16.70
2022-09-24T10:52:25.937Z,16.71
2022-09-24T10:54:58.408Z,16.74
2022-09-24T10:57:34.489Z,16.71
2022-09-24T11:00:24.037Z,16.75
2022-09-24T11:03:03.123Z,16.68
2022-09-24T11:05:36.014Z,16.67
2022-09-24T11:08:11.584Z,16.70
2022-09-24T11:10:44.513Z,16.74
2022-09-24T11:13:40.578Z,16.78
2022-09-24T11:16:19.144Z,16.79
2022-09-24T11:18:57.515Z,16.76
2022-09-24T11:21:57.928Z,16.77
2022-09-24T11:24:42.614Z,16.76
2022-09-24T11:27:27.794Z,16.80
2022-09-24T11:30:07.879Z,16.80
2022-09-24T11:32:55.818Z,16.87
2022-09-24T11:35:28.565Z,16.90
2022-09-24T11:38:18.124Z,16.85
2022-09-24T11:41:03.176Z,16.90
2022-09-24T11:44:03.860Z,16.87
2022-09-24T11:46:48.981Z,16.87
2022-09-24T11:49:54.792Z,16.84
2022-09-24T11:52:37.367Z,16.88
2022-09-24T11:55:24.422Z,16.95
2022-09-24T11:58:09.588Z,16.97
2022-09-24T12:00:42.904Z,16.94
2022-09-24T12:03:12.484Z,16.92
2022-09-24T12:05:56.988Z,16.90
2022-09-24T12:08:32.418Z,16.93
2022-09-24T12:11:08.654Z,16.92
2022-09-24T12:13:45.515Z,16.93
2022-09-24T12:16:15.246Z,16.94
2022-09-24T12:19:00.038Z,16.92
2022-09-24T12:21:40.599Z,16.96
2022-09-24T12:24:17.192Z,16.98
2022-09-24T12:26:46.950Z,16.95
2022-09-24T12:29:53.601Z,16.99
2022-09-24T12:32:57.773Z,16.98
2022-09-24T12:35:36.703Z,17.05
2022-09-24T12:38:12.827Z,17.03
2022-09-24T12:41:15.156Z,16.96
2022-09-24T12:43:45.721Z,16.99
2022-09-24T12:46:24.406Z,17.00
2022-09-24T12:48:54.102Z,17.01
2022-09-24T12:51:25.021Z,16.99
2022-09-24T12:53:57.877Z,17.03
2022-09-24T12:56:27.704Z,17.02
2022-09-24T12:58:55.058Z,17.03
2022-09-24T13:01:24.921Z,16.98
2022-09-24T13:04:16.565Z,16.97
2022-09-24T13:06:47.879Z,16.98
2022-09-24T13:09:26.287Z,16.99
2022-09-24T13:12:06.039Z,17.01
2022-09-24T13:14:34.295Z,17.04
2022-09-24T13:17:21.177Z,17.03
2022-09-24T13:19:56.261Z,17.01
2022-09-24T13:22:36.533Z,17.02
2022-09-24T13:25:09.131Z,16.98
2022-09-24T13:27:42.695Z,17.00
2022-09-24T13:30:12.602Z,16.96
2022-09-24T13:32:46.712Z,16.97
2022-09-24T13:35:22.515Z,17.00
2022-09-24T13:37:55.452Z,16.99
2022-09-24T13:40:27.144Z,16.99
2022-09-24T13:43:26.308Z,17.05
2022-09-24T13:45:53.499Z,17.05
2022-09-24T13:48:34.962Z,17.00
2022-09-24T13:51:04.420Z,17.02
2022-09-24T13:53:47.906Z,17.00
2022-09-24T13:56:16.998Z,17.05
2022-09-24T13:58:44.143Z,17.08
2022-09-24T14:01:19.802Z,17.05
2022-09-24T14:03:58.878Z,17.03
2022-09-24T14:06:42.569Z,17.01
2022-09-24T14:09:35.094Z,17.01
2022-09-24T14:12:16.404Z,17.03
2022-09-24T14:14:48.126Z,17.08
2022-09-24T14:17:15.658Z,17.05
2022-09-24T14:19:43.095Z,17.01
2022-09-24T14:22:20.157Z,17.02
2022-09-24T14:25:28.589Z,17.06
2022-09-24T14:27:57.945Z,17.00
2022-09-24T14:30:26.041Z,16.99
2022-09-24T14:32:59.941Z,17.02
2022-09-24T14:35:35.195Z,17.05
2022-09-24T14:38:04.464Z,17.07
2022-09-24T14:40:39.164Z,17.06
2022-09-24T14:43:06.119Z,17.05
2022-09-24T14:45:40.560Z,17.07
2022-09-24T14:48:28.631Z,17.08
2022-09-24T14:50:55.772Z,17.09
2022-09-24T14:53:30.618Z,17.02
2022-09-24T14:55:57.536Z,17.05
2022-09-24T14:58:29.867Z,17.06
2022-09-24T15:01:02.466Z,17.08
2022-09-24T15:03:38.974Z,17.07
2022-09-24T15:06:38.102Z,17.07
2022-09-24T15:09:23.683Z,17.04
2022-09-24T15:11:50.385Z,17.02
2022-09-24T15:14:17.133Z,17.05
2022-09-24T15:16:47.151Z,17.05
2022-09-24T15:19:20.077Z,17.07
2022-09-24T15:21:52.338Z,17.05
2022-09-24T15:24:20.509Z,17.07
2022-09-24T15:26:58.834Z,17.07
2022-09-24T15:29:26.115Z,17.11
2022-09-24T15:31:55.000Z,17.05
2022-09-24T15:37:11.655Z,17.04
2022-09-24T15:39:38.896Z,17.05
2022-09-24T15:42:05.434Z,17.05
2022-09-24T15:44:34.255Z,17.05
2022-09-24T15:47:01.068Z,17.05
2022-09-24T15:49:27.685Z,17.06
2022-09-24T15:52:02.919Z,17.04
2022-09-24T15:54:29.519Z,17.04
2022-09-24T15:56:56.101Z,17.05
2022-09-24T15:59:23.496Z,17.07
2022-09-24T16:01:54.550Z,17.04
2022-09-24T16:04:21.484Z,17.04
2022-09-24T16:06:48.066Z,17.01
2022-09-24T16:09:14.689Z,17.02
2022-09-24T16:11:41.390Z,17.01
2022-09-24T16:14:09.072Z,16.99
2022-09-24T16:16:38.479Z,17.01
2022-09-24T16:19:07.171Z,17.00
2022-09-24T16:21:33.716Z,17.01
2022-09-24T16:24:00.800Z,16.99
2022-09-24T16:26:27.649Z,17.01
2022-09-24T16:28:54.972Z,17.02
2022-09-24T16:31:23.446Z,17.01
2022-09-24T16:33:50.274Z,16.98
2022-09-24T16:36:17.048Z,16.98
2022-09-24T16:38:43.641Z,16.96
2022-09-24T16:41:10.789Z,16.99
2022-09-24T16:43:37.627Z,17.03
2022-09-24T16:46:07.132Z,17.02
2022-09-24T16:48:34.380Z,17.01
2022-09-24T16:51:11.495Z,17.04
2022-09-24T16:53:38.182Z,17.05
2022-09-24T16:56:10.901Z,17.04
2022-09-24T16:58:37.697Z,17.01
2022-09-24T17:01:08.925Z,17.01
2022-09-24T17:03:35.781Z,17.03
2022-09-24T17:06:03.128Z,17.01
2022-09-24T17:08:53.063Z,16.99
2022-09-24T17:11:21.436Z,16.99
2022-09-24T17:13:48.202Z,17.00
2022-09-24T17:16:16.062Z,17.00
2022-09-24T17:18:42.663Z,17.00
2022-09-24T17:21:12.028Z,17.00
2022-09-24T17:23:38.646Z,16.99
2022-09-24T17:26:11.803Z,17.00
2022-09-24T17:28:41.301Z,16.98
2022-09-24T17:31:09.854Z,16.98
2022-09-24T17:33:43.532Z,16.99
2022-09-24T17:36:12.764Z,16.97
2022-09-24T17:38:39.924Z,16.98
2022-09-24T17:41:11.146Z,16.99
2022-09-24T17:43:38.638Z,16.97
2022-09-24T17:46:13.812Z,16.96
2022-09-24T17:48:45.602Z,16.99
2022-09-24T17:51:22.760Z,16.97
2022-09-24T17:53:51.052Z,16.95
2022-09-24T17:56:18.820Z,16.97
2022-09-24T17:58:49.772Z,16.98
2022-09-24T18:01:27.713Z,16.97
2022-09-24T18:03:56.774Z,16.98
2022-09-24T18:06:27.204Z,16.95
2022-09-24T18:09:00.225Z,16.96
2022-09-24T18:11:30.074Z,16.97
2022-09-24T18:13:59.253Z,16.96
2022-09-24T18:16:29.229Z,16.97
2022-09-24T18:18:59.090Z,16.97
2022-09-24T18:21:26.930Z,16.97
2022-09-24T18:23:55.671Z,16.97
2022-09-24T18:26:25.135Z,16.94
2022-09-24T18:28:53.244Z,16.96
2022-09-24T18:31:21.909Z,16.97
2022-09-24T18:33:50.985Z,16.95
2022-09-24T18:36:20.046Z,16.96
2022-09-24T18:38:47.673Z,16.96
2022-09-24T18:41:19.078Z,16.94
2022-09-24T18:43:45.744Z,16.97
2022-09-24T18:46:14.388Z,16.95
2022-09-24T18:48:42.748Z,16.96
2022-09-24T18:51:17.273Z,16.94
2022-09-24T18:53:45.061Z,16.98
2022-09-24T18:56:11.832Z,16.96
2022-09-24T18:58:38.543Z,16.97
2022-09-24T19:01:07.829Z,16.96
2022-09-24T19:03:34.806Z,16.94
2022-09-24T19:06:04.652Z,16.93
2022-09-24T19:08:32.093Z,16.96
2022-09-24T19:11:07.918Z,16.94
2022-09-24T19:13:36.890Z,16.92
2022-09-24T19:16:05.711Z,16.94
2022-09-24T19:18:33.360Z,16.93
2022-09-24T19:21:00.182Z,16.94
2022-09-24T19:23:26.808Z,16.92
2022-09-24T19:26:00.574Z,16.93
2022-09-24T19:28:27.273Z,16.92
2022-09-24T19:30:55.103Z,16.92
2022-09-24T19:33:22.449Z,16.93
2022-09-24T19:36:03.796Z,16.92
2022-09-24T19:38:32.326Z,16.91
2022-09-24T19:41:01.610Z,16.92
2022-09-24T19:43:29.576Z,16.94
2022-09-24T19:45:58.393Z,16.92
2022-09-24T19:48:26.869Z,16.92
2022-09-24T19:50:55.264Z,17.09
2022-09-24T19:53:22.163Z,17.14
2022-09-24T19:55:48.925Z,17.20
2022-09-24T19:58:15.684Z,17.32
2022-09-24T20:00:43.116Z,17.43
2022-09-24T20:03:11.241Z,17.54
2022-09-24T20:05:40.511Z,17.69
2022-09-24T20:08:09.738Z,17.77
2022-09-24T20:10:36.335Z,17.78
2022-09-24T20:13:03.128Z,17.73
2022-09-24T20:15:29.805Z,17.83
2022-09-24T20:17:56.541Z,17.83
2022-09-24T20:20:23.662Z,17.90
2022-09-24T20:22:50.389Z,17.96
2022-09-24T20:25:17.252Z,17.97
2022-09-24T20:27:52.950Z,18.15
2022-09-24T20:30:21.604Z,18.04
2022-09-24T20:32:48.430Z,18.03
2022-09-24T20:35:15.862Z,18.06
2022-09-24T20:37:43.058Z,18.08
2022-09-24T20:40:10.244Z,18.04
2022-09-24T20:42:38.465Z,18.10
2022-09-24T20:45:07.096Z,18.10
2022-09-24T20:47:33.921Z,18.18
2022-09-24T20:50:00.773Z,18.18
2022-09-24T20:52:27.517Z,18.15
2022-09-24T20:54:54.177Z,18.19
2022-09-24T20:57:20.843Z,18.23
2022-09-24T20:59:57.177Z,18.22
2022-09-24T21:02:23.846Z,17.93
2022-09-24T21:04:50.630Z,17.85
2022-09-24T21:07:17.409Z,17.74
2022-09-24T21:09:44.211Z,17.71
2022-09-24T21:12:11.073Z,17.68
2022-09-24T21:14:37.954Z,17.61
2022-09-24T21:17:04.938Z,17.58
2022-09-24T21:19:35.634Z,17.59
2022-09-24T21:22:03.004Z,17.57
2022-09-24T21:24:31.559Z,17.54
2022-09-24T21:26:59.513Z,17.50
2022-09-24T21:29:26.115Z,17.49
2022-09-24T21:31:52.717Z,17.50
2022-09-24T21:34:20.901Z,17.49
2022-09-24T21:36:47.891Z,17.46
2022-09-24T21:39:16.037Z,17.46
2022-09-24T21:41:44.417Z,17.45
2022-09-24T21:44:14.253Z,17.43
2022-09-24T21:46:42.984Z,17.44
2022-09-24T21:49:11.145Z,17.41
2022-09-24T21:51:38.876Z,17.43
2022-09-24T21:54:08.606Z,17.38
2022-09-24T21:56:36.195Z,17.38
2022-09-24T21:59:23.084Z,17.37
2022-09-24T22:01:49.905Z,17.35
2022-09-24T22:04:17.014Z,17.32
2022-09-24T22:06:43.558Z,17.29
2022-09-24T22:09:10.527Z,17.31
2022-09-24T22:11:37.767Z,17.29
2022-09-24T22:14:05.244Z,17.28
2022-09-24T22:16:34.798Z,17.26
2022-09-24T22:19:03.704Z,17.26
2022-09-24T22:21:30.304Z,17.25
2022-09-24T22:23:57.437Z,17.24
2022-09-24T22:26:26.196Z,17.23
2022-09-24T22:28:53.919Z,17.24
2022-09-24T22:31:20.989Z,17.20
2022-09-24T22:34:06.950Z,17.20
2022-09-24T22:36:33.862Z,17.19
2022-09-24T22:39:01.753Z,17.18
2022-09-24T22:41:30.114Z,17.20
2022-09-24T22:43:58.166Z,17.17
2022-09-24T22:46:29.152Z,17.19
2022-09-24T22:48:57.000Z,17.16
2022-09-24T22:51:26.889Z,17.16
2022-09-24T22:53:53.862Z,17.16
2022-09-24T22:56:23.217Z,17.15
2022-09-24T22:58:58.835Z,17.15
2022-09-24T23:01:39.603Z,17.15
2022-09-24T23:04:06.389Z,17.13
2022-09-24T23:06:34.709Z,17.13
2022-09-24T23:09:01.927Z,17.12
2022-09-24T23:11:34.007Z,17.12
2022-09-24T23:14:15.372Z,17.12
2022-09-24T23:16:43.206Z,17.12
2022-09-24T23:19:20.224Z,17.12
2022-09-24T23:21:46.924Z,17.10
2022-09-24T23:24:16.610Z,17.10
2022-09-24T23:26:44.287Z,17.11
2022-09-24T23:29:12.564Z,17.09
2022-09-24T23:31:39.913Z,17.12
2022-09-24T23:34:07.703Z,17.12
2022-09-24T23:36:35.602Z,17.10
2022-09-24T23:39:04.011Z,17.09
2022-09-24T23:41:31.722Z,17.10
2022-09-24T23:43:59.694Z,17.10
2022-09-24T23:46:27.438Z,17.09
2022-09-24T23:48:54.833Z,17.10
2022-09-24T23:51:21.832Z,17.10
2022-09-24T23:53:48.817Z,17.08
2022-09-24T23:56:15.611Z,17.10
2022-09-24T23:58:42.342Z,17.09
